sensor_id;sensor_type;location;lat;lon;timestamp;pressure;altitude;pressure_sealevel;temperature;humidity
77041;BME280;65974;42.664;23.264;2024-02-23T00:01:31;94122.41;;;5.02;77.52
77041;BME280;65974;42.664;23.264;2024-02-23T00:03:56;94126.09;;;4.98;77.11
77041;BME280;65974;42.664;23.264;2024-02-23T00:06:22;94119.34;;;5.00;76.86
77041;BME280;65974;42.664;23.264;2024-02-23T00:08:54;94115.59;;;5.01;76.84
77041;BME280;65974;42.664;23.264;2024-02-23T00:11:21;94127.28;;;5.00;77.47
77041;BME280;65974;42.664;23.264;2024-02-23T00:13:48;94113.31;;;5.00;77.14
77041;BME280;65974;42.664;23.264;2024-02-23T00:16:13;94105.81;;;5.02;76.34
77041;BME280;65974;42.664;23.264;2024-02-23T00:18:40;94109.63;;;5.04;76.94
77041;BME280;65974;42.664;23.264;2024-02-23T00:21:06;94116.22;;;4.95;76.87
77041;BME280;65974;42.664;23.264;2024-02-23T00:23:31;94116.22;;;4.95;77.33
77041;BME280;65974;42.664;23.264;2024-02-23T00:25:57;94100.31;;;4.91;77.54
77041;BME280;65974;42.664;23.264;2024-02-23T00:28:22;94111.66;;;4.92;77.65
77041;BME280;65974;42.664;23.264;2024-02-23T00:30:48;94125.16;;;4.90;77.61
77041;BME280;65974;42.664;23.264;2024-02-23T00:33:13;94125.75;;;4.80;78.00
77041;BME280;65974;42.664;23.264;2024-02-23T00:35:39;94116.31;;;4.79;77.78
77041;BME280;65974;42.664;23.264;2024-02-23T00:38:04;94114.50;;;4.83;78.42
77041;BME280;65974;42.664;23.264;2024-02-23T00:40:30;94113.69;;;4.79;77.90
77041;BME280;65974;42.664;23.264;2024-02-23T00:42:56;94113.22;;;4.77;78.26
77041;BME280;65974;42.664;23.264;2024-02-23T00:45:21;94110.28;;;4.79;78.41
77041;BME280;65974;42.664;23.264;2024-02-23T00:47:47;94109.50;;;4.78;78.46
77041;BME280;65974;42.664;23.264;2024-02-23T00:50:13;94097.28;;;4.70;78.60
77041;BME280;65974;42.664;23.264;2024-02-23T00:52:38;94102.84;;;4.65;78.92
77041;BME280;65974;42.664;23.264;2024-02-23T00:55:06;94096.88;;;4.68;78.29
77041;BME280;65974;42.664;23.264;2024-02-23T00:57:33;94089.38;;;4.70;78.44
77041;BME280;65974;42.664;23.264;2024-02-23T00:59:59;94093.13;;;4.69;78.47
77041;BME280;65974;42.664;23.264;2024-02-23T01:02:24;94080.50;;;4.59;78.83
77041;BME280;65974;42.664;23.264;2024-02-23T01:04:50;94077.19;;;4.62;78.93
77041;BME280;65974;42.664;23.264;2024-02-23T01:07:16;94071.59;;;4.67;78.68
77041;BME280;65974;42.664;23.264;2024-02-23T01:09:43;94070.84;;;4.66;79.05
77041;BME280;65974;42.664;23.264;2024-02-23T01:12:11;94086.66;;;4.66;79.00
77041;BME280;65974;42.664;23.264;2024-02-23T01:14:37;94071.19;;;4.65;78.59
77041;BME280;65974;42.664;23.264;2024-02-23T01:17:03;94075.38;;;4.66;78.91
77041;BME280;65974;42.664;23.264;2024-02-23T01:19:28;94076.19;;;4.70;77.85
77041;BME280;65974;42.664;23.264;2024-02-23T01:21:54;94066.47;;;4.74;77.67
77041;BME280;65974;42.664;23.264;2024-02-23T01:24:27;94072.16;;;4.76;77.88
77041;BME280;65974;42.664;23.264;2024-02-23T01:26:55;94079.91;;;4.88;77.14
77041;BME280;65974;42.664;23.264;2024-02-23T01:29:25;94070.59;;;4.94;76.18
77041;BME280;65974;42.664;23.264;2024-02-23T01:31:52;94065.72;;;4.96;76.13
77041;BME280;65974;42.664;23.264;2024-02-23T01:34:20;94063.16;;;5.00;75.45
77041;BME280;65974;42.664;23.264;2024-02-23T01:36:46;94053.06;;;5.05;75.84
77041;BME280;65974;42.664;23.264;2024-02-23T01:39:12;94058.66;;;5.00;75.83
77041;BME280;65974;42.664;23.264;2024-02-23T01:41:37;94072.69;;;5.04;75.38
77041;BME280;65974;42.664;23.264;2024-02-23T01:44:03;94040.06;;;4.93;76.38
77041;BME280;65974;42.664;23.264;2024-02-23T01:46:29;94052.66;;;4.81;77.14
77041;BME280;65974;42.664;23.264;2024-02-23T01:48:55;94050.41;;;4.83;76.99
77041;BME280;65974;42.664;23.264;2024-02-23T01:51:22;94060.06;;;4.75;77.34
77041;BME280;65974;42.664;23.264;2024-02-23T01:53:47;94052.88;;;4.72;77.44
77041;BME280;65974;42.664;23.264;2024-02-23T01:56:13;94065.66;;;4.70;78.05
77041;BME280;65974;42.664;23.264;2024-02-23T01:58:43;94043.00;;;4.69;78.36
77041;BME280;65974;42.664;23.264;2024-02-23T02:03:45;94046.88;;;4.75;76.98
77041;BME280;65974;42.664;23.264;2024-02-23T02:06:11;94033.69;;;4.75;77.19
77041;BME280;65974;42.664;23.264;2024-02-23T02:08:37;94037.28;;;4.86;76.33
77041;BME280;65974;42.664;23.264;2024-02-23T02:11:03;94032.22;;;4.78;77.28
77041;BME280;65974;42.664;23.264;2024-02-23T02:13:29;94030.38;;;4.78;77.15
77041;BME280;65974;42.664;23.264;2024-02-23T02:15:55;94029.94;;;4.76;77.53
77041;BME280;65974;42.664;23.264;2024-02-23T02:18:21;94041.47;;;4.87;76.71
77041;BME280;65974;42.664;23.264;2024-02-23T02:20:56;94032.94;;;4.75;77.37
77041;BME280;65974;42.664;23.264;2024-02-23T02:23:24;94039.03;;;4.79;76.61
77041;BME280;65974;42.664;23.264;2024-02-23T02:25:55;94035.78;;;4.85;76.33
77041;BME280;65974;42.664;23.264;2024-02-23T02:28:21;94044.50;;;4.89;76.33
77041;BME280;65974;42.664;23.264;2024-02-23T02:30:48;94043.78;;;4.92;76.35
77041;BME280;65974;42.664;23.264;2024-02-23T02:33:14;94035.06;;;4.88;76.19
77041;BME280;65974;42.664;23.264;2024-02-23T02:35:40;94049.84;;;4.93;75.72
77041;BME280;65974;42.664;23.264;2024-02-23T02:38:05;94038.47;;;4.89;76.58
77041;BME280;65974;42.664;23.264;2024-02-23T02:40:31;94043.13;;;4.76;77.03
77041;BME280;65974;42.664;23.264;2024-02-23T02:42:57;94045.50;;;4.81;76.71
77041;BME280;65974;42.664;23.264;2024-02-23T02:45:23;94037.59;;;4.81;77.11
77041;BME280;65974;42.664;23.264;2024-02-23T02:47:49;94049.94;;;4.77;76.84
77041;BME280;65974;42.664;23.264;2024-02-23T02:50:15;94034.53;;;4.79;76.62
77041;BME280;65974;42.664;23.264;2024-02-23T02:52:41;94043.13;;;4.76;77.35
77041;BME280;65974;42.664;23.264;2024-02-23T02:55:07;94051.19;;;4.83;77.00
77041;BME280;65974;42.664;23.264;2024-02-23T02:57:33;94042.09;;;4.81;77.50
77041;BME280;65974;42.664;23.264;2024-02-23T02:59:59;94045.09;;;4.79;77.23
77041;BME280;65974;42.664;23.264;2024-02-23T03:02:24;94038.28;;;4.78;77.48
77041;BME280;65974;42.664;23.264;2024-02-23T03:04:50;94057.00;;;4.73;77.99
77041;BME280;65974;42.664;23.264;2024-02-23T03:07:17;94052.09;;;4.71;77.72
77041;BME280;65974;42.664;23.264;2024-02-23T03:09:42;94047.28;;;4.77;77.69
77041;BME280;65974;42.664;23.264;2024-02-23T03:12:08;94049.69;;;4.63;79.08
77041;BME280;65974;42.664;23.264;2024-02-23T03:14:34;94053.66;;;4.53;78.46
77041;BME280;65974;42.664;23.264;2024-02-23T03:16:59;94050.38;;;4.41;79.83
77041;BME280;65974;42.664;23.264;2024-02-23T03:19:25;94047.31;;;4.39;79.59
77041;BME280;65974;42.664;23.264;2024-02-23T03:21:51;94060.44;;;4.35;80.34
77041;BME280;65974;42.664;23.264;2024-02-23T03:24:17;94042.69;;;4.51;79.44
77041;BME280;65974;42.664;23.264;2024-02-23T03:26:43;94049.88;;;4.54;79.40
77041;BME280;65974;42.664;23.264;2024-02-23T03:29:09;94051.06;;;4.57;79.60
77041;BME280;65974;42.664;23.264;2024-02-23T03:31:34;94040.31;;;4.65;79.11
77041;BME280;65974;42.664;23.264;2024-02-23T03:34:00;94048.00;;;4.74;78.50
77041;BME280;65974;42.664;23.264;2024-02-23T03:36:25;94046.81;;;4.71;78.92
77041;BME280;65974;42.664;23.264;2024-02-23T03:38:51;94041.91;;;4.70;78.94
77041;BME280;65974;42.664;23.264;2024-02-23T03:41:17;94035.41;;;4.64;79.35
77041;BME280;65974;42.664;23.264;2024-02-23T03:43:43;94046.00;;;4.67;79.19
77041;BME280;65974;42.664;23.264;2024-02-23T03:46:08;94034.53;;;4.60;79.27
77041;BME280;65974;42.664;23.264;2024-02-23T03:48:34;94031.16;;;4.59;79.67
77041;BME280;65974;42.664;23.264;2024-02-23T03:50:59;94048.72;;;4.52;80.30
77041;BME280;65974;42.664;23.264;2024-02-23T03:53:25;94037.88;;;4.57;79.57
77041;BME280;65974;42.664;23.264;2024-02-23T03:55:50;94031.91;;;4.60;79.70
77041;BME280;65974;42.664;23.264;2024-02-23T03:58:16;94039.00;;;4.56;80.50
77041;BME280;65974;42.664;23.264;2024-02-23T04:00:43;94046.84;;;4.52;80.57
77041;BME280;65974;42.664;23.264;2024-02-23T04:03:08;94044.78;;;4.23;81.54
77041;BME280;65974;42.664;23.264;2024-02-23T04:05:34;94034.56;;;4.22;81.56
77041;BME280;65974;42.664;23.264;2024-02-23T04:07:59;94043.59;;;4.21;82.14
77041;BME280;65974;42.664;23.264;2024-02-23T04:10:25;94052.25;;;4.21;81.71
77041;BME280;65974;42.664;23.264;2024-02-23T04:12:50;94043.84;;;4.16;82.24
77041;BME280;65974;42.664;23.264;2024-02-23T04:15:17;94056.28;;;4.15;82.88
77041;BME280;65974;42.664;23.264;2024-02-23T04:17:43;94069.47;;;4.15;82.42
77041;BME280;65974;42.664;23.264;2024-02-23T04:20:08;94060.78;;;4.15;82.85
77041;BME280;65974;42.664;23.264;2024-02-23T04:22:38;94062.84;;;4.06;82.95
77041;BME280;65974;42.664;23.264;2024-02-23T04:25:04;94058.94;;;4.34;81.58
77041;BME280;65974;42.664;23.264;2024-02-23T04:27:30;94048.72;;;4.33;81.70
77041;BME280;65974;42.664;23.264;2024-02-23T04:29:56;94045.75;;;4.34;81.92
77041;BME280;65974;42.664;23.264;2024-02-23T04:32:21;94050.31;;;4.18;82.53
77041;BME280;65974;42.664;23.264;2024-02-23T04:34:48;94061.47;;;4.12;83.11
77041;BME280;65974;42.664;23.264;2024-02-23T04:37:13;94058.66;;;4.05;82.94
77041;BME280;65974;42.664;23.264;2024-02-23T04:39:39;94056.38;;;4.03;82.95
77041;BME280;65974;42.664;23.264;2024-02-23T04:42:07;94047.38;;;4.04;83.05
77041;BME280;65974;42.664;23.264;2024-02-23T04:44:34;94061.66;;;4.03;82.96
77041;BME280;65974;42.664;23.264;2024-02-23T04:47:00;94060.56;;;4.04;83.22
77041;BME280;65974;42.664;23.264;2024-02-23T04:49:25;94059.72;;;4.00;83.69
77041;BME280;65974;42.664;23.264;2024-02-23T04:51:51;94060.75;;;3.96;83.57
77041;BME280;65974;42.664;23.264;2024-02-23T04:54:16;94048.00;;;3.98;83.66
77041;BME280;65974;42.664;23.264;2024-02-23T04:56:42;94052.03;;;3.91;83.64
77041;BME280;65974;42.664;23.264;2024-02-23T04:59:07;94052.56;;;4.01;83.20
77041;BME280;65974;42.664;23.264;2024-02-23T05:01:37;94067.00;;;3.87;83.91
77041;BME280;65974;42.664;23.264;2024-02-23T05:04:03;94067.06;;;3.75;84.63
77041;BME280;65974;42.664;23.264;2024-02-23T05:06:29;94070.00;;;3.70;84.48
77041;BME280;65974;42.664;23.264;2024-02-23T05:08:55;94072.72;;;3.58;85.29
77041;BME280;65974;42.664;23.264;2024-02-23T05:11:20;94075.69;;;3.72;84.55
77041;BME280;65974;42.664;23.264;2024-02-23T05:13:47;94080.25;;;3.75;84.48
77041;BME280;65974;42.664;23.264;2024-02-23T05:16:14;94083.41;;;3.65;84.98
77041;BME280;65974;42.664;23.264;2024-02-23T05:18:40;94087.47;;;3.78;84.05
77041;BME280;65974;42.664;23.264;2024-02-23T05:21:06;94084.50;;;3.80;84.07
77041;BME280;65974;42.664;23.264;2024-02-23T05:23:32;94085.84;;;3.89;83.32
77041;BME280;65974;42.664;23.264;2024-02-23T05:25:57;94100.13;;;3.73;84.74
77041;BME280;65974;42.664;23.264;2024-02-23T05:28:23;94090.66;;;3.53;85.52
77041;BME280;65974;42.664;23.264;2024-02-23T05:30:48;94101.78;;;3.62;84.81
77041;BME280;65974;42.664;23.264;2024-02-23T05:33:14;94097.16;;;3.74;84.50
77041;BME280;65974;42.664;23.264;2024-02-23T05:35:40;94069.47;;;3.80;83.88
77041;BME280;65974;42.664;23.264;2024-02-23T05:38:06;94090.63;;;3.68;84.36
77041;BME280;65974;42.664;23.264;2024-02-23T05:40:32;94095.78;;;3.80;84.10
77041;BME280;65974;42.664;23.264;2024-02-23T05:43:01;94100.78;;;3.85;83.97
77041;BME280;65974;42.664;23.264;2024-02-23T05:45:27;94085.66;;;3.98;82.87
77041;BME280;65974;42.664;23.264;2024-02-23T05:47:52;94097.34;;;4.01;83.01
77041;BME280;65974;42.664;23.264;2024-02-23T05:50:18;94101.59;;;4.05;82.87
77041;BME280;65974;42.664;23.264;2024-02-23T05:52:43;94088.09;;;4.07;83.03
77041;BME280;65974;42.664;23.264;2024-02-23T05:55:09;94106.41;;;4.19;82.50
77041;BME280;65974;42.664;23.264;2024-02-23T05:57:34;94102.47;;;4.28;81.74
77041;BME280;65974;42.664;23.264;2024-02-23T06:00:00;94120.16;;;4.28;81.91
77041;BME280;65974;42.664;23.264;2024-02-23T06:02:25;94094.69;;;4.16;82.11
77041;BME280;65974;42.664;23.264;2024-02-23T06:04:51;94120.28;;;4.16;82.51
77041;BME280;65974;42.664;23.264;2024-02-23T06:07:16;94120.09;;;4.24;82.04
77041;BME280;65974;42.664;23.264;2024-02-23T06:09:42;94114.81;;;4.24;82.37
77041;BME280;65974;42.664;23.264;2024-02-23T06:12:08;94129.19;;;4.27;82.44
77041;BME280;65974;42.664;23.264;2024-02-23T06:14:35;94114.34;;;4.38;81.65
77041;BME280;65974;42.664;23.264;2024-02-23T06:17:01;94141.09;;;4.55;80.85
77041;BME280;65974;42.664;23.264;2024-02-23T06:19:27;94123.78;;;4.77;78.93
77041;BME280;65974;42.664;23.264;2024-02-23T06:21:52;94113.38;;;4.84;79.77
77041;BME280;65974;42.664;23.264;2024-02-23T06:24:18;94111.97;;;4.90;79.07
77041;BME280;65974;42.664;23.264;2024-02-23T06:26:45;94127.53;;;4.95;79.31
77041;BME280;65974;42.664;23.264;2024-02-23T06:29:11;94131.16;;;5.06;78.72
77041;BME280;65974;42.664;23.264;2024-02-23T06:31:38;94127.38;;;5.07;78.64
77041;BME280;65974;42.664;23.264;2024-02-23T06:34:07;94129.47;;;5.17;77.93
77041;BME280;65974;42.664;23.264;2024-02-23T06:36:35;94138.03;;;5.33;77.25
77041;BME280;65974;42.664;23.264;2024-02-23T06:39:01;94136.28;;;5.41;77.26
77041;BME280;65974;42.664;23.264;2024-02-23T06:41:26;94116.84;;;5.53;77.04
77041;BME280;65974;42.664;23.264;2024-02-23T06:43:54;94126.41;;;5.61;76.60
77041;BME280;65974;42.664;23.264;2024-02-23T06:46:19;94118.56;;;5.64;76.50
77041;BME280;65974;42.664;23.264;2024-02-23T06:48:46;94129.22;;;5.71;75.79
77041;BME280;65974;42.664;23.264;2024-02-23T06:51:11;94139.31;;;5.85;75.31
77041;BME280;65974;42.664;23.264;2024-02-23T06:53:37;94125.44;;;5.91;75.03
77041;BME280;65974;42.664;23.264;2024-02-23T06:56:03;94136.41;;;5.93;74.94
77041;BME280;65974;42.664;23.264;2024-02-23T06:58:29;94144.09;;;6.02;75.03
77041;BME280;65974;42.664;23.264;2024-02-23T07:00:55;94142.38;;;6.13;74.44
77041;BME280;65974;42.664;23.264;2024-02-23T07:03:21;94123.50;;;6.14;73.98
77041;BME280;65974;42.664;23.264;2024-02-23T07:05:46;94126.06;;;6.37;73.25
77041;BME280;65974;42.664;23.264;2024-02-23T07:08:13;94131.47;;;6.44;72.94
77041;BME280;65974;42.664;23.264;2024-02-23T07:10:38;94135.09;;;6.62;72.00
77041;BME280;65974;42.664;23.264;2024-02-23T07:13:05;94126.06;;;6.67;71.83
77041;BME280;65974;42.664;23.264;2024-02-23T07:15:32;94135.66;;;6.75;71.60
77041;BME280;65974;42.664;23.264;2024-02-23T07:17:58;94132.66;;;6.80;71.16
77041;BME280;65974;42.664;23.264;2024-02-23T07:20:24;94129.59;;;6.74;71.01
77041;BME280;65974;42.664;23.264;2024-02-23T07:22:49;94132.31;;;6.81;70.54
77041;BME280;65974;42.664;23.264;2024-02-23T07:25:18;94136.34;;;6.72;71.43
77041;BME280;65974;42.664;23.264;2024-02-23T07:27:46;94119.03;;;6.78;71.29
77041;BME280;65974;42.664;23.264;2024-02-23T07:30:14;94118.34;;;7.18;70.54
77041;BME280;65974;42.664;23.264;2024-02-23T07:32:41;94119.19;;;7.25;69.72
77041;BME280;65974;42.664;23.264;2024-02-23T07:35:07;94130.06;;;7.17;69.76
77041;BME280;65974;42.664;23.264;2024-02-23T07:37:32;94118.41;;;7.25;70.22
77041;BME280;65974;42.664;23.264;2024-02-23T07:39:58;94111.84;;;7.48;69.67
77041;BME280;65974;42.664;23.264;2024-02-23T07:42:23;94123.97;;;7.49;69.11
77041;BME280;65974;42.664;23.264;2024-02-23T07:44:49;94125.06;;;7.48;69.56
77041;BME280;65974;42.664;23.264;2024-02-23T07:47:14;94126.22;;;7.47;69.11
77041;BME280;65974;42.664;23.264;2024-02-23T07:49:40;94128.09;;;7.47;69.47
77041;BME280;65974;42.664;23.264;2024-02-23T07:52:08;94123.38;;;7.66;69.16
77041;BME280;65974;42.664;23.264;2024-02-23T07:54:34;94127.69;;;7.85;68.41
77041;BME280;65974;42.664;23.264;2024-02-23T07:57:00;94130.88;;;8.08;68.06
77041;BME280;65974;42.664;23.264;2024-02-23T07:59:27;94118.78;;;8.14;67.48
77041;BME280;65974;42.664;23.264;2024-02-23T08:01:53;94123.47;;;8.31;67.88
77041;BME280;65974;42.664;23.264;2024-02-23T08:04:19;94125.84;;;8.47;67.17
77041;BME280;65974;42.664;23.264;2024-02-23T08:06:44;94112.53;;;8.43;66.72
77041;BME280;65974;42.664;23.264;2024-02-23T08:09:11;94102.31;;;8.42;67.46
77041;BME280;65974;42.664;23.264;2024-02-23T08:11:38;94107.72;;;8.56;67.15
77041;BME280;65974;42.664;23.264;2024-02-23T08:14:03;94100.19;;;8.72;67.23
77041;BME280;65974;42.664;23.264;2024-02-23T08:16:29;94108.94;;;8.76;67.83
77041;BME280;65974;42.664;23.264;2024-02-23T08:18:54;94118.47;;;8.91;66.60
77041;BME280;65974;42.664;23.264;2024-02-23T08:21:20;94115.78;;;8.81;67.36
77041;BME280;65974;42.664;23.264;2024-02-23T08:23:47;94116.44;;;8.60;67.67
77041;BME280;65974;42.664;23.264;2024-02-23T08:26:12;94125.13;;;8.57;67.99
77041;BME280;65974;42.664;23.264;2024-02-23T08:28:38;94118.75;;;8.69;68.15
77041;BME280;65974;42.664;23.264;2024-02-23T08:31:03;94106.28;;;8.80;67.25
77041;BME280;65974;42.664;23.264;2024-02-23T08:33:30;94109.72;;;8.87;67.57
77041;BME280;65974;42.664;23.264;2024-02-23T08:35:55;94101.03;;;9.01;67.41
77041;BME280;65974;42.664;23.264;2024-02-23T08:38:22;94093.13;;;9.15;67.02
77041;BME280;65974;42.664;23.264;2024-02-23T08:40:47;94110.66;;;9.41;66.77
77041;BME280;65974;42.664;23.264;2024-02-23T08:43:13;94103.81;;;9.57;65.44
77041;BME280;65974;42.664;23.264;2024-02-23T08:45:39;94101.94;;;9.72;65.02
77041;BME280;65974;42.664;23.264;2024-02-23T08:48:06;94101.56;;;9.87;64.49
77041;BME280;65974;42.664;23.264;2024-02-23T08:50:34;94116.03;;;10.11;64.18
77041;BME280;65974;42.664;23.264;2024-02-23T08:53:02;94103.47;;;10.26;63.14
77041;BME280;65974;42.664;23.264;2024-02-23T08:55:27;94107.25;;;10.35;62.77
77041;BME280;65974;42.664;23.264;2024-02-23T08:57:53;94106.50;;;10.35;62.32
77041;BME280;65974;42.664;23.264;2024-02-23T09:00:19;94100.38;;;10.45;62.51
77041;BME280;65974;42.664;23.264;2024-02-23T09:02:45;94096.56;;;10.60;61.91
77041;BME280;65974;42.664;23.264;2024-02-23T09:05:11;94096.91;;;10.62;61.69
77041;BME280;65974;42.664;23.264;2024-02-23T09:07:36;94091.91;;;10.78;61.33
77041;BME280;65974;42.664;23.264;2024-02-23T09:10:02;94093.78;;;10.88;60.27
77041;BME280;65974;42.664;23.264;2024-02-23T09:12:30;94087.56;;;11.12;59.63
77041;BME280;65974;42.664;23.264;2024-02-23T09:14:55;94084.81;;;11.30;59.54
77041;BME280;65974;42.664;23.264;2024-02-23T09:17:21;94083.94;;;11.50;59.19
77041;BME280;65974;42.664;23.264;2024-02-23T09:19:49;94082.63;;;11.80;58.00
77041;BME280;65974;42.664;23.264;2024-02-23T09:22:14;94089.59;;;12.11;57.37
77041;BME280;65974;42.664;23.264;2024-02-23T09:24:41;94102.75;;;12.32;55.32
77041;BME280;65974;42.664;23.264;2024-02-23T09:27:08;94090.19;;;12.29;55.28
77041;BME280;65974;42.664;23.264;2024-02-23T09:29:34;94091.00;;;12.26;54.68
77041;BME280;65974;42.664;23.264;2024-02-23T09:32:00;94082.38;;;12.48;54.70
77041;BME280;65974;42.664;23.264;2024-02-23T09:34:26;94083.59;;;12.40;54.32
77041;BME280;65974;42.664;23.264;2024-02-23T09:36:52;94087.66;;;12.56;54.17
77041;BME280;65974;42.664;23.264;2024-02-23T09:39:17;94091.09;;;12.56;53.34
77041;BME280;65974;42.664;23.264;2024-02-23T09:41:44;94089.31;;;13.13;52.96
77041;BME280;65974;42.664;23.264;2024-02-23T09:44:10;94085.75;;;12.86;53.12
77041;BME280;65974;42.664;23.264;2024-02-23T09:46:40;94089.06;;;12.97;52.03
77041;BME280;65974;42.664;23.264;2024-02-23T09:49:08;94073.38;;;13.03;52.24
77041;BME280;65974;42.664;23.264;2024-02-23T09:51:34;94081.94;;;13.21;51.97
77041;BME280;65974;42.664;23.264;2024-02-23T09:54:01;94087.06;;;13.08;51.85
77041;BME280;65974;42.664;23.264;2024-02-23T09:56:28;94077.50;;;13.38;50.88
77041;BME280;65974;42.664;23.264;2024-02-23T09:58:58;94069.78;;;13.70;50.91
77041;BME280;65974;42.664;23.264;2024-02-23T10:01:29;94054.41;;;13.74;50.45
77041;BME280;65974;42.664;23.264;2024-02-23T10:03:59;94059.59;;;13.84;50.30
77041;BME280;65974;42.664;23.264;2024-02-23T10:06:25;94066.78;;;13.91;49.63
77041;BME280;65974;42.664;23.264;2024-02-23T10:08:51;94059.41;;;13.98;49.35
77041;BME280;65974;42.664;23.264;2024-02-23T10:11:21;94072.09;;;14.41;48.47
77041;BME280;65974;42.664;23.264;2024-02-23T10:13:49;94057.69;;;14.54;48.32
77041;BME280;65974;42.664;23.264;2024-02-23T10:16:16;94060.72;;;14.56;47.92
77041;BME280;65974;42.664;23.264;2024-02-23T10:18:42;94063.88;;;14.51;47.83
77041;BME280;65974;42.664;23.264;2024-02-23T10:21:08;94061.06;;;14.58;47.85
77041;BME280;65974;42.664;23.264;2024-02-23T10:23:38;94070.94;;;14.61;47.09
77041;BME280;65974;42.664;23.264;2024-02-23T10:26:05;94052.69;;;14.33;47.37
77041;BME280;65974;42.664;23.264;2024-02-23T10:28:31;94056.72;;;14.64;47.32
77041;BME280;65974;42.664;23.264;2024-02-23T10:30:56;94051.38;;;14.84;46.37
77041;BME280;65974;42.664;23.264;2024-02-23T10:33:23;94046.53;;;14.95;45.35
77041;BME280;65974;42.664;23.264;2024-02-23T10:35:55;94033.00;;;15.02;45.68
77041;BME280;65974;42.664;23.264;2024-02-23T10:38:22;94027.94;;;15.24;45.58
77041;BME280;65974;42.664;23.264;2024-02-23T10:40:50;94031.38;;;15.60;44.06
77041;BME280;65974;42.664;23.264;2024-02-23T10:43:20;94043.97;;;15.08;45.00
77041;BME280;65974;42.664;23.264;2024-02-23T10:45:51;94031.75;;;15.07;44.83
77041;BME280;65974;42.664;23.264;2024-02-23T10:48:18;94024.69;;;14.97;45.21
77041;BME280;65974;42.664;23.264;2024-02-23T10:50:44;94026.06;;;15.21;45.25
77041;BME280;65974;42.664;23.264;2024-02-23T10:53:13;94025.25;;;15.43;44.38
77041;BME280;65974;42.664;23.264;2024-02-23T10:55:39;94019.81;;;14.92;44.65
77041;BME280;65974;42.664;23.264;2024-02-23T10:58:09;94018.69;;;15.09;45.05
77041;BME280;65974;42.664;23.264;2024-02-23T11:00:37;94007.63;;;15.23;45.25
77041;BME280;65974;42.664;23.264;2024-02-23T11:03:04;94001.00;;;15.63;44.64
77041;BME280;65974;42.664;23.264;2024-02-23T11:05:32;93994.88;;;15.79;43.98
77041;BME280;65974;42.664;23.264;2024-02-23T11:07:58;93985.28;;;15.94;43.97
77041;BME280;65974;42.664;23.264;2024-02-23T11:10:24;93994.00;;;15.98;43.07
77041;BME280;65974;42.664;23.264;2024-02-23T11:13:01;93989.50;;;15.95;42.43
77041;BME280;65974;42.664;23.264;2024-02-23T11:15:28;93998.50;;;15.88;42.93
77041;BME280;65974;42.664;23.264;2024-02-23T11:17:55;93985.56;;;15.83;43.27
77041;BME280;65974;42.664;23.264;2024-02-23T11:20:20;93997.13;;;15.96;42.55
77041;BME280;65974;42.664;23.264;2024-02-23T11:22:55;93990.63;;;15.65;42.61
77041;BME280;65974;42.664;23.264;2024-02-23T11:25:26;93988.25;;;15.83;42.62
77041;BME280;65974;42.664;23.264;2024-02-23T11:27:53;93981.69;;;16.00;42.21
77041;BME280;65974;42.664;23.264;2024-02-23T11:30:18;93982.31;;;16.20;41.91
77041;BME280;65974;42.664;23.264;2024-02-23T11:32:48;93977.00;;;16.33;41.44
77041;BME280;65974;42.664;23.264;2024-02-23T11:35:15;93971.03;;;16.25;41.45
77041;BME280;65974;42.664;23.264;2024-02-23T11:40:13;93974.50;;;16.55;41.61
77041;BME280;65974;42.664;23.264;2024-02-23T11:42:41;93975.69;;;16.38;41.10
77041;BME280;65974;42.664;23.264;2024-02-23T11:45:09;93964.78;;;16.16;42.07
77041;BME280;65974;42.664;23.264;2024-02-23T11:47:36;93970.22;;;16.70;41.37
77041;BME280;65974;42.664;23.264;2024-02-23T11:50:02;93971.97;;;16.76;40.84
77041;BME280;65974;42.664;23.264;2024-02-23T11:52:28;93964.56;;;16.80;40.03
77041;BME280;65974;42.664;23.264;2024-02-23T11:54:54;93963.59;;;16.87;39.85
77041;BME280;65974;42.664;23.264;2024-02-23T11:57:21;93952.50;;;16.85;39.09
77041;BME280;65974;42.664;23.264;2024-02-23T11:59:47;93950.78;;;16.78;39.67
77041;BME280;65974;42.664;23.264;2024-02-23T12:02:13;93957.72;;;17.04;39.89
77041;BME280;65974;42.664;23.264;2024-02-23T12:04:38;93949.50;;;17.21;39.20
77041;BME280;65974;42.664;23.264;2024-02-23T12:07:04;93943.91;;;16.90;39.69
77041;BME280;65974;42.664;23.264;2024-02-23T12:09:29;93954.38;;;17.00;39.80
77041;BME280;65974;42.664;23.264;2024-02-23T12:11:55;93939.72;;;16.89;39.87
77041;BME280;65974;42.664;23.264;2024-02-23T12:14:21;93949.97;;;17.06;39.63
77041;BME280;65974;42.664;23.264;2024-02-23T12:16:47;93951.00;;;16.71;40.00
77041;BME280;65974;42.664;23.264;2024-02-23T12:19:14;93946.34;;;16.30;41.29
77041;BME280;65974;42.664;23.264;2024-02-23T12:21:40;93942.50;;;16.44;41.82
77041;BME280;65974;42.664;23.264;2024-02-23T12:24:06;93943.50;;;16.21;40.82
77041;BME280;65974;42.664;23.264;2024-02-23T12:26:33;93931.28;;;16.04;41.18
77041;BME280;65974;42.664;23.264;2024-02-23T12:29:02;93938.13;;;15.93;42.13
77041;BME280;65974;42.664;23.264;2024-02-23T12:31:33;93907.50;;;15.90;42.16
77041;BME280;65974;42.664;23.264;2024-02-23T12:34:00;93909.91;;;16.01;42.40
77041;BME280;65974;42.664;23.264;2024-02-23T12:36:26;93911.88;;;16.13;41.85
77041;BME280;65974;42.664;23.264;2024-02-23T12:38:53;93919.00;;;16.19;41.91
77041;BME280;65974;42.664;23.264;2024-02-23T12:41:19;93907.81;;;16.50;41.03
77041;BME280;65974;42.664;23.264;2024-02-23T12:43:44;93900.44;;;16.38;40.30
77041;BME280;65974;42.664;23.264;2024-02-23T12:46:10;93904.44;;;16.33;40.35
77041;BME280;65974;42.664;23.264;2024-02-23T12:48:38;93899.59;;;16.41;40.58
77041;BME280;65974;42.664;23.264;2024-02-23T12:51:04;93891.81;;;16.17;40.33
77041;BME280;65974;42.664;23.264;2024-02-23T12:53:40;93891.63;;;16.24;38.94
77041;BME280;65974;42.664;23.264;2024-02-23T12:56:11;93888.66;;;16.06;40.08
77041;BME280;65974;42.664;23.264;2024-02-23T12:58:41;93892.88;;;16.20;40.20